createdAt,value
2022-10-05T00:01:03.885Z,11.82
2022-10-05T00:03:47.959Z,11.90
2022-10-05T00:06:32.053Z,11.93
2022-10-05T00:09:20.898Z,11.69
2022-10-05T00:12:14.380Z,11.22
2022-10-05T00:15:01.977Z,11.05
2022-10-05T00:17:49.044Z,11.29
2022-10-05T00:20:32.970Z,10.71
2022-10-05T00:23:20.608Z,10.66
2022-10-05T00:26:13.229Z,10.73
2022-10-05T00:28:57.351Z,10.31
2022-10-05T00:31:41.413Z,10.58
2022-10-05T00:34:26.993Z,10.23
2022-10-05T00:37:11.141Z,10.38
2022-10-05T00:39:55.690Z,10.23
2022-10-05T00:42:52.107Z,10.73
2022-10-05T00:45:43.662Z,10.62
2022-10-05T00:48:33.844Z,10.42
2022-10-05T00:51:37.495Z,10.91
2022-10-05T00:54:30.762Z,10.97
2022-10-05T00:57:31.799Z,10.98
2022-10-05T01:00:18.759Z,10.68
2022-10-05T01:03:11.213Z,11.10
2022-10-05T01:06:06.362Z,11.29
2022-10-05T01:08:59.383Z,11.40
2022-10-05T01:11:50.903Z,11.10
2022-10-05T01:14:44.862Z,11.29
2022-10-05T01:17:38.367Z,11.24
2022-10-05T01:20:35.687Z,11.17
2022-10-05T01:23:55.664Z,11.03
2022-10-05T01:27:11.893Z,11.01
2022-10-05T01:30:07.725Z,11.01
2022-10-05T01:33:00.489Z,11.13
2022-10-05T01:35:54.268Z,11.13
2022-10-05T01:38:47.996Z,11.15
2022-10-05T01:41:39.880Z,11.02
2022-10-05T01:44:30.107Z,11.11
2022-10-05T01:47:23.161Z,11.18
2022-10-05T01:50:14.253Z,11.07
2022-10-05T01:53:06.791Z,11.00
2022-10-05T01:55:56.192Z,11.06
2022-10-05T01:58:50.030Z,11.05
2022-10-05T02:01:40.399Z,10.94
2022-10-05T02:05:00.541Z,11.07
2022-10-05T02:07:41.532Z,11.24
2022-10-05T02:10:30.054Z,11.00
2022-10-05T02:13:18.516Z,11.09
2022-10-05T02:16:06.387Z,11.10
2022-10-05T02:18:53.875Z,11.04
2022-10-05T02:21:39.792Z,11.05
2022-10-05T02:24:28.403Z,11.03
2022-10-05T02:27:15.448Z,11.13
2022-10-05T02:30:04.184Z,11.24
2022-10-05T02:32:57.638Z,11.18
2022-10-05T02:35:41.428Z,11.12
2022-10-05T02:38:36.904Z,11.17
2022-10-05T02:41:33.782Z,11.28
2022-10-05T02:44:29.280Z,11.22
2022-10-05T02:47:20.724Z,11.05
2022-10-05T02:50:16.189Z,11.21
2022-10-05T02:53:14.744Z,11.27
2022-10-05T02:56:13.232Z,11.01
2022-10-05T02:59:06.375Z,11.09
2022-10-05T03:01:53.728Z,10.83
2022-10-05T03:04:42.700Z,10.99
2022-10-05T03:07:33.703Z,11.07
2022-10-05T03:10:29.613Z,11.08
2022-10-05T03:13:27.331Z,10.89
2022-10-05T03:16:22.008Z,10.75
2022-10-05T03:19:20.984Z,10.63
2022-10-05T03:22:13.036Z,10.61
2022-10-05T03:25:19.450Z,10.44
2022-10-05T03:28:11.457Z,10.38
2022-10-05T03:31:03.723Z,10.34
2022-10-05T03:33:57.157Z,10.29
2022-10-05T03:36:48.437Z,10.29
2022-10-05T03:39:38.142Z,10.35
2022-10-05T03:42:30.894Z,10.43
2022-10-05T03:45:28.443Z,10.48
2022-10-05T03:48:16.801Z,10.55
2022-10-05T03:51:09.224Z,10.68
2022-10-05T03:53:59.576Z,10.67
2022-10-05T03:56:49.576Z,10.51
2022-10-05T03:59:40.405Z,10.54
2022-10-05T04:02:28.281Z,10.71
2022-10-05T04:05:19.218Z,10.77
2022-10-05T04:08:08.115Z,10.55
2022-10-05T04:10:55.467Z,10.35
2022-10-05T04:13:45.501Z,10.36
2022-10-05T04:16:32.899Z,10.41
2022-10-05T04:19:24.540Z,10.53
2022-10-05T04:22:17.152Z,10.48
2022-10-05T04:25:06.864Z,10.67
2022-10-05T04:27:56.057Z,10.66
2022-10-05T04:30:45.399Z,10.71
2022-10-05T04:33:29.279Z,11.02
2022-10-05T04:36:23.727Z,11.10
2022-10-05T04:39:20.103Z,11.24
2022-10-05T04:42:12.360Z,11.35
2022-10-05T04:45:09.658Z,11.70
2022-10-05T04:48:31.079Z,11.72
2022-10-05T04:51:28.034Z,11.48
2022-10-05T04:54:25.696Z,11.91
2022-10-05T04:57:15.063Z,12.23
2022-10-05T05:00:11.242Z,12.48
2022-10-05T05:03:28.494Z,12.69
2022-10-05T05:06:30.232Z,12.80
2022-10-05T05:09:56.924Z,12.99
2022-10-05T05:12:51.833Z,13.05
2022-10-05T05:15:47.192Z,13.11
2022-10-05T05:18:50.323Z,13.19
2022-10-05T05:21:43.591Z,13.17
2022-10-05T05:24:39.643Z,13.15
2022-10-05T05:27:40.535Z,13.27
2022-10-05T05:30:31.566Z,13.08
2022-10-05T05:33:24.369Z,13.21
2022-10-05T05:36:35.827Z,12.97
2022-10-05T05:39:27.463Z,13.20
2022-10-05T05:42:26.612Z,13.13
2022-10-05T05:45:18.802Z,12.80
2022-10-05T05:48:08.460Z,12.74
2022-10-05T05:50:58.794Z,12.63
2022-10-05T05:53:46.162Z,12.27
2022-10-05T05:56:36.008Z,12.62
2022-10-05T05:59:25.941Z,12.77
2022-10-05T06:02:15.214Z,12.38
2022-10-05T06:05:08.000Z,12.47
2022-10-05T06:07:53.885Z,12.76
2022-10-05T06:10:44.673Z,12.71
2022-10-05T06:13:34.601Z,12.67
2022-10-05T06:16:24.022Z,12.66
2022-10-05T06:19:13.283Z,12.65
2022-10-05T06:22:05.205Z,12.74
2022-10-05T06:25:03.404Z,12.83
2022-10-05T06:28:03.991Z,12.36
2022-10-05T06:30:58.815Z,12.54
2022-10-05T06:33:49.400Z,12.52
2022-10-05T06:36:44.411Z,12.64
2022-10-05T06:39:58.693Z,12.69
2022-10-05T06:43:12.872Z,12.95
2022-10-05T06:46:24.067Z,13.13
2022-10-05T06:49:20.738Z,13.56
2022-10-05T06:52:21.371Z,13.68
2022-10-05T06:55:19.277Z,13.95
2022-10-05T06:58:22.516Z,14.14
2022-10-05T07:01:12.133Z,14.17
2022-10-05T07:04:12.116Z,14.13
2022-10-05T07:07:01.681Z,14.41
2022-10-05T07:09:57.908Z,14.31
2022-10-05T07:12:55.128Z,14.47
2022-10-05T07:15:46.340Z,14.73
2022-10-05T07:18:44.255Z,15.01
2022-10-05T07:21:39.548Z,14.69
2022-10-05T07:24:32.952Z,15.13
2022-10-05T07:27:21.624Z,14.86
2022-10-05T07:30:08.352Z,15.13
2022-10-05T07:33:02.949Z,15.18
2022-10-05T07:36:12.343Z,15.43
2022-10-05T07:39:03.902Z,15.65
2022-10-05T07:41:56.287Z,15.96
2022-10-05T07:44:49.405Z,15.87
2022-10-05T07:47:38.143Z,16.21
2022-10-05T07:50:27.887Z,16.15
2022-10-05T07:53:17.144Z,15.87
2022-10-05T07:56:10.637Z,15.61
2022-10-05T07:59:01.761Z,15.67
2022-10-05T08:01:52.125Z,15.88
2022-10-05T08:04:46.063Z,16.31
2022-10-05T08:07:33.177Z,16.38
2022-10-05T08:10:27.744Z,16.29
2022-10-05T08:13:20.334Z,16.37
2022-10-05T08:16:12.660Z,16.63
2022-10-05T08:19:02.451Z,16.31
2022-10-05T08:21:52.041Z,16.78
2022-10-05T08:24:43.230Z,16.86
2022-10-05T08:27:30.165Z,17.26
2022-10-05T08:30:17.085Z,16.57
2022-10-05T08:33:09.680Z,17.05
2022-10-05T08:36:04.781Z,17.09
2022-10-05T08:38:54.744Z,16.88
2022-10-05T08:42:09.414Z,17.31
2022-10-05T08:45:12.111Z,17.14
2022-10-05T08:48:24.274Z,16.76
2022-10-05T08:51:34.177Z,17.06
2022-10-05T08:54:44.735Z,17.33
2022-10-05T08:57:52.311Z,17.58
2022-10-05T09:00:50.302Z,17.47
2022-10-05T09:04:17.823Z,17.50
2022-10-05T09:07:11.813Z,17.44
2022-10-05T09:10:36.654Z,17.71
2022-10-05T09:13:54.626Z,17.78
2022-10-05T09:17:05.078Z,17.94
2022-10-05T09:20:11.229Z,17.74
2022-10-05T09:23:13.739Z,17.75
2022-10-05T09:26:00.819Z,17.67
2022-10-05T09:28:59.624Z,17.46
2022-10-05T09:32:05.432Z,18.10
2022-10-05T09:35:29.905Z,17.93
2022-10-05T09:38:23.335Z,17.60
2022-10-05T09:41:40.398Z,18.20
2022-10-05T09:44:54.143Z,17.90
2022-10-05T09:48:07.173Z,17.37
2022-10-05T09:51:27.892Z,18.05
2022-10-05T09:54:44.352Z,17.93
2022-10-05T09:57:47.204Z,18.40
2022-10-05T10:00:50.105Z,18.49
2022-10-05T10:04:07.184Z,18.56
2022-10-05T10:07:21.211Z,18.13
2022-10-05T10:10:34.555Z,18.30
2022-10-05T10:13:38.240Z,18.48
2022-10-05T10:16:53.758Z,18.52
2022-10-05T10:20:10.064Z,18.69
2022-10-05T10:23:24.679Z,18.72
2022-10-05T10:26:26.718Z,19.04
2022-10-05T10:29:28.956Z,18.88
2022-10-05T10:32:45.732Z,19.30
2022-10-05T10:35:35.903Z,18.98
2022-10-05T10:38:40.264Z,18.91
2022-10-05T10:41:53.044Z,19.18
2022-10-05T10:45:13.968Z,19.19
2022-10-05T10:48:12.157Z,19.57
2022-10-05T10:51:15.027Z,19.34
2022-10-05T10:54:32.617Z,19.07
2022-10-05T10:57:23.686Z,19.09
2022-10-05T11:00:24.153Z,19.16
2022-10-05T11:03:42.684Z,19.56
2022-10-05T11:07:11.532Z,19.07
2022-10-05T11:10:18.282Z,18.72
2022-10-05T11:13:35.473Z,19.52
2022-10-05T11:16:58.153Z,19.66
2022-10-05T11:20:03.501Z,19.60
2022-10-05T11:23:27.916Z,19.70
2022-10-05T11:26:32.635Z,19.13
2022-10-05T11:29:36.075Z,19.59
2022-10-05T11:32:56.356Z,20.02
2022-10-05T11:36:04.959Z,19.73
2022-10-05T11:39:17.990Z,19.70
2022-10-05T11:42:35.479Z,19.59
2022-10-05T11:45:26.159Z,20.03
2022-10-05T11:48:46.826Z,20.43
2022-10-05T11:51:39.532Z,20.46
2022-10-05T11:54:58.605Z,20.48
2022-10-05T11:57:51.731Z,21.04
2022-10-05T12:00:43.943Z,21.06
2022-10-05T12:03:53.341Z,20.95
2022-10-05T12:06:51.994Z,20.61
2022-10-05T12:10:11.458Z,21.06
2022-10-05T12:13:13.331Z,20.67
2022-10-05T12:16:00.976Z,20.53
2022-10-05T12:18:56.014Z,20.82
2022-10-05T12:21:45.536Z,20.95
2022-10-05T12:24:44.878Z,20.97
2022-10-05T12:27:32.513Z,20.80
2022-10-05T12:30:26.341Z,20.71
2022-10-05T12:33:19.899Z,20.07
2022-10-05T12:36:09.875Z,19.60
2022-10-05T12:39:01.617Z,19.83
2022-10-05T12:41:54.128Z,19.88
2022-10-05T12:44:56.282Z,20.25
2022-10-05T12:47:54.153Z,20.45
2022-10-05T12:50:42.186Z,20.39
2022-10-05T12:53:40.216Z,21.10
2022-10-05T12:56:38.059Z,21.80
2022-10-05T12:59:33.907Z,21.37
2022-10-05T13:02:29.665Z,21.35
2022-10-05T13:05:24.330Z,20.58
2022-10-05T13:08:19.131Z,19.89
2022-10-05T13:11:12.684Z,20.29
2022-10-05T13:14:09.409Z,20.59
2022-10-05T13:17:00.443Z,20.25
2022-10-05T13:19:48.192Z,20.26
2022-10-05T13:22:38.461Z,20.34
2022-10-05T13:25:28.608Z,20.97
2022-10-05T13:28:19.644Z,21.00
2022-10-05T13:31:08.379Z,20.72
2022-10-05T13:34:15.429Z,20.95
2022-10-05T13:37:10.246Z,20.84
2022-10-05T13:40:06.381Z,20.87
2022-10-05T13:42:55.891Z,20.08
2022-10-05T13:45:46.159Z,20.88
2022-10-05T13:48:53.000Z,20.56
2022-10-05T13:51:42.747Z,20.30
2022-10-05T13:54:35.342Z,19.38
2022-10-05T13:57:36.188Z,19.16
2022-10-05T14:00:25.650Z,19.50
2022-10-05T14:03:27.601Z,19.88
2022-10-05T14:06:14.525Z,19.29
2022-10-05T14:08:59.989Z,19.38
2022-10-05T14:11:50.793Z,19.50
2022-10-05T14:14:46.833Z,19.28
2022-10-05T14:17:39.028Z,19.40
2022-10-05T14:20:28.243Z,18.87
2022-10-05T14:23:18.559Z,19.18
2022-10-05T14:26:19.309Z,19.04
2022-10-05T14:29:16.930Z,19.03
2022-10-05T14:32:13.235Z,18.44
2022-10-05T14:35:05.240Z,18.73
2022-10-05T14:37:56.421Z,18.91
2022-10-05T14:40:40.324Z,19.10
2022-10-05T14:43:24.192Z,18.79
2022-10-05T14:46:27.805Z,18.88
2022-10-05T14:49:21.585Z,18.42
2022-10-05T14:52:28.784Z,18.50
2022-10-05T14:55:24.775Z,18.42
2022-10-05T14:58:24.278Z,18.58
2022-10-05T15:01:17.627Z,18.19
2022-10-05T15:04:17.583Z,18.17
2022-10-05T15:07:14.764Z,17.95
2022-10-05T15:10:22.676Z,18.19
2022-10-05T15:13:13.230Z,17.96
2022-10-05T15:16:01.207Z,17.59
2022-10-05T15:18:50.838Z,17.97
2022-10-05T15:21:50.798Z,17.79
2022-10-05T15:24:43.707Z,17.63
2022-10-05T15:27:37.765Z,17.49
2022-10-05T15:30:23.071Z,17.43
2022-10-05T15:33:16.172Z,17.41
2022-10-05T15:36:10.884Z,17.23
2022-10-05T15:39:03.597Z,17.03
2022-10-05T15:42:01.066Z,17.05
2022-10-05T15:45:01.694Z,16.99
2022-10-05T15:47:53.686Z,16.35
2022-10-05T15:50:45.684Z,15.92
2022-10-05T15:53:40.569Z,15.45
2022-10-05T15:56:31.361Z,15.54
2022-10-05T15:59:25.316Z,15.62
2022-10-05T16:02:19.999Z,15.39
2022-10-05T16:05:16.154Z,15.27
2022-10-05T16:08:17.453Z,15.28
2022-10-05T16:11:02.317Z,15.49
2022-10-05T16:13:53.645Z,15.38
2022-10-05T16:16:50.723Z,15.13
2022-10-05T16:19:41.014Z,15.19
2022-10-05T16:22:33.887Z,15.02
2022-10-05T16:25:23.497Z,14.94
2022-10-05T16:28:19.694Z,14.61
2022-10-05T16:31:13.430Z,14.41
2022-10-05T16:34:06.715Z,14.32
2022-10-05T16:37:00.023Z,14.14
2022-10-05T16:39:55.116Z,14.45
2022-10-05T16:42:50.959Z,14.35
2022-10-05T16:45:47.471Z,14.23
2022-10-05T16:48:36.394Z,13.78
2022-10-05T16:51:32.627Z,13.90
2022-10-05T16:54:21.426Z,13.93
2022-10-05T16:57:12.753Z,14.22
2022-10-05T17:00:16.563Z,14.44
2022-10-05T17:03:19.543Z,14.47
2022-10-05T17:06:37.154Z,14.42
2022-10-05T17:09:48.476Z,14.44
2022-10-05T17:12:45.598Z,14.33
2022-10-05T17:15:38.182Z,14.39
2022-10-05T17:18:29.939Z,14.22
2022-10-05T17:21:19.442Z,14.47
2022-10-05T17:24:21.602Z,14.42
2022-10-05T17:27:20.527Z,14.16
2022-10-05T17:30:41.951Z,14.22
2022-10-05T17:33:29.184Z,14.20
2022-10-05T17:36:19.418Z,14.31
2022-10-05T17:39:15.718Z,14.57
2022-10-05T17:42:32.545Z,14.60
2022-10-05T17:45:52.895Z,14.26
2022-10-05T17:48:43.318Z,14.29
2022-10-05T17:52:16.995Z,14.14
2022-10-05T17:55:27.438Z,14.07
2022-10-05T17:59:02.077Z,13.72
2022-10-05T18:02:15.790Z,13.52
2022-10-05T18:05:06.363Z,13.58
2022-10-05T18:08:31.770Z,13.71
2022-10-05T18:11:37.928Z,13.44
2022-10-05T18:14:24.902Z,13.54
2022-10-05T18:17:13.919Z,13.74
2022-10-05T18:20:14.866Z,13.85
2022-10-05T18:23:35.696Z,13.77
2022-10-05T18:26:31.867Z,13.99
2022-10-05T18:29:49.781Z,14.15
2022-10-05T18:32:55.420Z,14.02
2022-10-05T18:35:53.553Z,14.04
2022-10-05T18:38:48.446Z,13.94
2022-10-05T18:41:54.336Z,13.89
2022-10-05T18:44:42.188Z,13.82
2022-10-05T18:47:35.595Z,13.61
2022-10-05T18:50:28.119Z,13.69
2022-10-05T18:53:23.269Z,13.92
2022-10-05T18:56:18.880Z,13.90
2022-10-05T18:59:20.139Z,13.47
2022-10-05T19:02:13.740Z,13.47
2022-10-05T19:05:18.949Z,13.56
2022-10-05T19:08:26.801Z,13.53
2022-10-05T19:11:19.147Z,13.54
2022-10-05T19:14:12.280Z,13.37
2022-10-05T19:17:10.146Z,13.44
2022-10-05T19:20:18.120Z,13.20
2022-10-05T19:23:27.520Z,13.44
2022-10-05T19:26:16.575Z,13.37
2022-10-05T19:29:13.411Z,13.17
2022-10-05T19:32:03.656Z,13.12
2022-10-05T19:35:05.529Z,12.91
2022-10-05T19:37:57.525Z,13.09
2022-10-05T19:40:50.276Z,12.83
2022-10-05T19:43:55.504Z,12.97
2022-10-05T19:46:57.055Z,12.68
2022-10-05T19:49:50.138Z,12.95
2022-10-05T19:52:47.524Z,12.93
2022-10-05T19:55:37.087Z,12.83
2022-10-05T19:58:24.611Z,12.73
2022-10-05T20:01:08.531Z,12.89
2022-10-05T20:03:53.383Z,12.80
2022-10-05T20:06:39.575Z,12.65
2022-10-05T20:09:24.889Z,12.81
2022-10-05T20:12:08.662Z,12.54
2022-10-05T20:15:35.606Z,12.40
2022-10-05T20:19:05.963Z,12.57
2022-10-05T20:21:51.966Z,12.46
2022-10-05T20:24:50.971Z,12.40
2022-10-05T20:27:49.167Z,12.71
2022-10-05T20:30:34.284Z,12.50
2022-10-05T20:33:18.228Z,12.50
2022-10-05T20:36:03.781Z,12.24
2022-10-05T20:38:47.602Z,12.30
2022-10-05T20:41:32.200Z,12.45
2022-10-05T20:44:16.278Z,12.67
2022-10-05T20:47:01.626Z,12.72
2022-10-05T20:49:45.535Z,12.65
2022-10-05T20:52:29.467Z,12.40
2022-10-05T20:55:13.590Z,12.43
2022-10-05T20:57:57.518Z,12.45
2022-10-05T21:00:59.075Z,12.30
2022-10-05T21:03:44.511Z,12.12
2022-10-05T21:06:29.654Z,12.20
2022-10-05T21:09:15.177Z,12.44
2022-10-05T21:11:59.418Z,12.38
2022-10-05T21:14:43.222Z,12.49
2022-10-05T21:17:26.903Z,12.52
2022-10-05T21:20:13.034Z,12.24
2022-10-05T21:22:56.687Z,12.22
2022-10-05T21:25:40.351Z,12.33
2022-10-05T21:28:24.229Z,12.57
2022-10-05T21:31:09.556Z,12.25
2022-10-05T21:33:53.687Z,12.35
2022-10-05T21:36:39.159Z,12.23
2022-10-05T21:39:23.679Z,12.40
2022-10-05T21:42:07.480Z,12.39
2022-10-05T21:44:51.196Z,12.63
2022-10-05T21:47:36.004Z,12.78
2022-10-05T21:50:19.861Z,12.72
2022-10-05T21:53:08.617Z,12.24
2022-10-05T21:55:53.292Z,12.01
2022-10-05T21:58:37.829Z,12.38
2022-10-05T22:01:22.917Z,12.50
2022-10-05T22:04:07.840Z,12.79
2022-10-05T22:06:51.569Z,12.93
2022-10-05T22:09:36.664Z,12.78
2022-10-05T22:12:21.044Z,12.62
2022-10-05T22:15:06.380Z,12.62
2022-10-05T22:17:50.394Z,12.87
2022-10-05T22:20:35.873Z,12.95
2022-10-05T22:23:19.856Z,12.86
2022-10-05T22:26:06.528Z,12.75
2022-10-05T22:28:55.144Z,12.73
2022-10-05T22:31:39.685Z,12.65
2022-10-05T22:34:23.757Z,12.73
2022-10-05T22:37:08.023Z,12.48
2022-10-05T22:39:51.722Z,12.38
2022-10-05T22:42:36.969Z,12.36
2022-10-05T22:45:20.655Z,11.64
2022-10-05T22:48:04.473Z,12.64
2022-10-05T22:50:49.308Z,12.66
2022-10-05T22:53:33.095Z,12.67
2022-10-05T22:56:18.330Z,12.52
2022-10-05T22:59:03.487Z,12.54
2022-10-05T23:01:47.328Z,12.33
2022-10-05T23:04:31.265Z,12.58
2022-10-05T23:07:15.119Z,12.63
2022-10-05T23:09:59.200Z,12.71
2022-10-05T23:12:43.098Z,12.65
2022-10-05T23:15:28.531Z,12.22
2022-10-05T23:18:13.066Z,12.19
2022-10-05T23:20:57.516Z,12.07
2022-10-05T23:23:47.396Z,12.36
2022-10-05T23:26:32.233Z,12.41
2022-10-05T23:29:16.020Z,12.26
2022-10-05T23:32:01.175Z,11.85
2022-10-05T23:34:44.876Z,11.93
2022-10-05T23:37:29.198Z,12.17
2022-10-05T23:40:14.743Z,12.26
2022-10-05T23:42:58.489Z,12.39
2022-10-05T23:45:45.439Z,12.31
2022-10-05T23:48:31.518Z,12.24
2022-10-05T23:51:16.244Z,12.29
2022-10-05T23:54:00.059Z,12.44
2022-10-05T23:56:43.884Z,12.42
2022-10-05T23:59:27.727Z,12.37
